Corbins Corner, Connecticut
Current Conditions -  °F | °C
As of 4:53 AM on Monday 26 Jan 2015 (Local Time) from KHFD Reporting Station
Overcast Overcast  
Wind Chill: -12°   Ceiling: 10000
Heat Index: -8°   Visibility: 10mi
Dew Point: -14°   Wind: 6mph
Humidity: 60%   Direction: NA
Pressure: 30.09"   Gusts: NA
Location:  41.7325°N, 72.7334°W
Report Text: KHFD 260953Z AUTO VRB05KT 10SM OVC100 M08/M14 A3009 RMK AO2 SLP188 T10781144
Loading
Personal Weather Stations






























Interactive Weather Map New forecast layout! Learn more

10-Day Weather Forecast

Advertisements
Track Severe Weather on mobile